Time;durP1;ratioP1;P1;durP2;ratioP2;P2;SDS_P1;SDS_P2;PMS_P1;PMS_P2;Temp;Humidity;BMP_temperature;BMP_pressure;BME280_temperature;BME280_humidity;BME280_pressure;Samples;Min_cycle;Max_cycle;Signal;HPM_P1;HPM_P2
2022/09/25 00:01:12;;;;;;;15.80;12.17;;;15.80;82.40;;;;;;5042850;28;20533;-74
2022/09/25 00:03:40;;;;;;;17.67;12.47;;;15.70;82.40;;;;;;5043809;28;20578;-73
2022/09/25 00:06:13;;;;;;;21.33;14.00;;;15.70;82.40;;;;;;5042665;28;20486;-74
2022/09/25 00:08:42;;;;;;;18.40;14.00;;;15.70;82.50;;;;;;5042494;28;20505;-74
2022/09/25 00:11:12;;;;;;;20.43;16.20;;;15.70;82.60;;;;;;5046215;28;21242;-73
2022/09/25 00:13:41;;;;;;;21.73;15.77;;;15.70;82.60;;;;;;5044239;28;20944;-75
2022/09/25 00:16:11;;;;;;;22.77;16.63;;;15.70;82.60;;;;;;5037032;28;20542;-75
2022/09/25 00:21:33;;;;;;;26.50;17.40;;;15.70;82.80;;;;;;4988704;28;20474;-74
2022/09/25 00:24:03;;;;;;;22.37;17.90;;;15.60;82.90;;;;;;5045435;28;21019;-74
2022/09/25 00:26:35;;;;;;;20.20;16.13;;;15.60;82.90;;;;;;5040786;28;20444;-74
2022/09/25 00:29:04;;;;;;;21.70;16.80;;;15.60;83.00;;;;;;5042904;28;20509;-74
2022/09/25 00:31:32;;;;;;;17.70;15.10;;;15.60;83.10;;;;;;5045272;28;20468;-75
2022/09/25 00:34:02;;;;;;;22.80;15.60;;;15.70;83.10;;;;;;5044621;28;20718;-75
2022/09/25 00:36:32;;;;;;;18.60;15.23;;;15.70;83.10;;;;;;5041182;28;21176;-75
2022/09/25 00:39:00;;;;;;;25.53;17.23;;;15.70;83.10;;;;;;5045761;28;21050;-74
2022/09/25 00:41:30;;;;;;;27.63;16.50;;;15.70;83.10;;;;;;5045176;28;20916;-74
2022/09/25 00:44:01;;;;;;;23.07;16.90;;;15.60;83.10;;;;;;5044258;28;20478;-74
2022/09/25 00:46:32;;;;;;;18.53;15.30;;;15.70;83.20;;;;;;5043168;28;20573;-74
2022/09/25 00:49:03;;;;;;;23.37;15.63;;;15.60;83.30;;;;;;5044712;28;20573;-74
2022/09/25 00:51:39;;;;;;;19.70;15.73;;;15.70;83.30;;;;;;5045064;28;20973;-74
2022/09/25 00:54:13;;;;;;;21.90;16.80;;;15.70;83.40;;;;;;5042684;28;20477;-74
2022/09/25 00:56:44;;;;;;;20.10;16.17;;;15.70;83.40;;;;;;5044791;28;20498;-74
2022/09/25 00:59:16;;;;;;;20.63;16.70;;;15.70;83.40;;;;;;5042289;28;20891;-75
2022/09/25 01:01:45;;;;;;;19.53;16.40;;;15.70;83.50;;;;;;5040318;28;20467;-74
2022/09/25 01:04:14;;;;;;;23.37;16.20;;;15.70;83.50;;;;;;5034567;28;20598;-74
2022/09/25 01:06:44;;;;;;;19.60;16.30;;;15.70;83.50;;;;;;5046947;28;20481;-75
2022/09/25 01:09:11;;;;;;;24.17;17.87;;;15.70;83.50;;;;;;5046681;28;20474;-75
2022/09/25 01:11:39;;;;;;;22.70;17.80;;;15.70;83.60;;;;;;5044041;28;20520;-73
2022/09/25 01:14:09;;;;;;;19.23;16.70;;;15.70;83.60;;;;;;5043088;28;21364;-74
2022/09/25 01:16:43;;;;;;;21.00;17.37;;;15.70;83.60;;;;;;5047059;28;20451;-75
2022/09/25 01:19:26;;;;;;;24.50;18.50;;;15.70;83.60;;;;;;5047310;28;20462;-74
2022/09/25 01:22:01;;;;;;;23.20;18.30;;;15.70;83.60;;;;;;5045496;28;20504;-75
2022/09/25 01:24:51;;;;;;;22.67;18.90;;;15.70;83.60;;;;;;5051827;28;21125;-73
2022/09/25 01:27:33;;;;;;;23.20;19.67;;;15.60;83.70;;;;;;5044444;28;20479;-75
2022/09/25 01:30:07;;;;;;;21.50;18.20;;;15.60;83.70;;;;;;5047992;28;20455;-74
2022/09/25 01:32:42;;;;;;;20.23;17.63;;;15.60;83.70;;;;;;5046179;28;20497;-74
2022/09/25 01:35:16;;;;;;;23.30;19.27;;;15.60;83.70;;;;;;5049944;28;21211;-75
2022/09/25 01:37:50;;;;;;;23.80;18.90;;;15.60;83.80;;;;;;5047772;28;20441;-73
2022/09/25 01:40:25;;;;;;;22.07;18.70;;;15.60;83.80;;;;;;5047506;28;20532;-73
2022/09/25 01:42:57;;;;;;;24.30;19.83;;;15.60;83.80;;;;;;5045401;28;20575;-75
2022/09/25 01:45:34;;;;;;;22.13;17.40;;;15.60;83.90;;;;;;5050977;28;20545;-74
2022/09/25 01:48:06;;;;;;;22.80;18.13;;;15.60;83.90;;;;;;5062375;28;20512;-75
2022/09/25 01:50:50;;;;;;;21.17;17.37;;;15.60;83.90;;;;;;5046770;28;21017;-75
2022/09/25 01:53:25;;;;;;;26.23;19.97;;;15.60;83.90;;;;;;5047776;28;21124;-75
2022/09/25 01:55:57;;;;;;;29.80;22.10;;;15.60;83.90;;;;;;5041709;28;20483;-75
2022/09/25 01:58:29;;;;;;;27.83;21.73;;;15.50;83.90;;;;;;5047748;28;20480;-75
2022/09/25 02:01:01;;;;;;;25.33;20.57;;;15.50;83.90;;;;;;5048963;28;20497;-76
2022/09/25 02:03:36;;;;;;;26.73;21.43;;;15.50;84.00;;;;;;5044803;28;20450;-75
2022/09/25 02:06:08;;;;;;;28.67;20.87;;;15.50;84.10;;;;;;5044502;28;20490;-74
2022/09/25 02:08:43;;;;;;;25.57;20.83;;;15.50;84.20;;;;;;5049277;28;20482;-74
2022/09/25 02:11:13;;;;;;;26.30;20.57;;;15.50;84.20;;;;;;5048507;28;20537;-75
2022/09/25 02:13:46;;;;;;;25.93;20.47;;;15.60;84.20;;;;;;5062835;28;20528;-74
2022/09/25 02:16:18;;;;;;;25.73;19.30;;;15.50;84.20;;;;;;5049879;28;20448;-77
2022/09/25 02:21:44;;;;;;;27.30;18.10;;;15.50;84.10;;;;;;5048178;28;20463;-76
2022/09/25 02:24:19;;;;;;;21.43;18.27;;;15.50;84.20;;;;;;5044218;28;20476;-75
2022/09/25 02:26:48;;;;;;;24.60;19.47;;;15.50;84.20;;;;;;5043554;28;20466;-75
2022/09/25 02:29:17;;;;;;;24.70;20.43;;;15.50;84.20;;;;;;5055832;28;21147;-72
2022/09/25 02:31:49;;;;;;;24.10;20.40;;;15.50;84.20;;;;;;5043908;28;20451;-75
2022/09/25 02:34:17;;;;;;;26.23;21.30;;;15.50;84.30;;;;;;5046154;28;20475;-73
2022/09/25 02:36:46;;;;;;;25.03;20.37;;;15.50;84.30;;;;;;5049787;28;20447;-73
2022/09/25 02:39:17;;;;;;;27.90;20.20;;;15.50;84.30;;;;;;5049238;28;20493;-74
2022/09/25 02:42:03;;;;;;;23.70;18.90;;;15.50;84.30;;;;;;5045103;28;20619;-73
2022/09/25 02:44:42;;;;;;;22.87;19.13;;;15.50;84.40;;;;;;5045549;28;20545;-73
2022/09/25 02:47:22;;;;;;;22.10;18.53;;;15.50;84.30;;;;;;5037705;28;20462;-74
2022/09/25 02:49:55;;;;;;;22.93;18.57;;;15.50;84.40;;;;;;5045616;28;20508;-74
2022/09/25 02:52:32;;;;;;;23.30;18.43;;;15.50;84.40;;;;;;5046389;28;20506;-75
2022/09/25 02:55:06;;;;;;;20.47;17.73;;;15.40;84.30;;;;;;5046005;28;20474;-75
2022/09/25 02:57:42;;;;;;;25.23;20.17;;;15.40;84.40;;;;;;5043604;28;20497;-75
2022/09/25 03:00:12;;;;;;;25.70;20.30;;;15.40;84.40;;;;;;5046411;28;20497;-75
2022/09/25 03:02:43;;;;;;;25.37;19.73;;;15.40;84.40;;;;;;5043904;28;20455;-74
2022/09/25 03:05:20;;;;;;;23.77;19.57;;;15.40;84.40;;;;;;5050441;28;20482;-74
2022/09/25 03:10:36;;;;;;;25.53;20.97;;;15.40;84.40;;;;;;5043959;28;20520;-75
2022/09/25 03:13:15;;;;;;;31.17;21.40;;;15.40;84.50;;;;;;5046045;28;20500;-74
2022/09/25 03:15:45;;;;;;;26.90;20.30;;;15.40;84.50;;;;;;5047681;28;21063;-75
2022/09/25 03:18:15;;;;;;;24.83;18.87;;;15.40;84.50;;;;;;5046566;28;20459;-75
2022/09/25 03:20:43;;;;;;;21.93;18.63;;;15.40;84.60;;;;;;5047047;28;20516;-75
2022/09/25 03:23:11;;;;;;;22.80;18.40;;;15.40;84.60;;;;;;5045680;28;20467;-74
2022/09/25 03:25:39;;;;;;;25.00;19.37;;;15.40;84.60;;;;;;5045571;28;20518;-74
2022/09/25 03:28:13;;;;;;;29.37;19.20;;;15.40;84.60;;;;;;5046119;28;20952;-74
2022/09/25 03:30:41;;;;;;;25.47;20.27;;;15.40;84.60;;;;;;5049811;28;20454;-73
2022/09/25 03:33:11;;;;;;;23.43;18.60;;;15.40;84.60;;;;;;5044601;28;20481;-74
2022/09/25 03:35:40;;;;;;;24.33;19.10;;;15.40;84.60;;;;;;5046924;28;20501;-73
2022/09/25 03:38:09;;;;;;;22.43;17.80;;;15.40;84.60;;;;;;5054159;28;20563;-74
2022/09/25 03:40:37;;;;;;;25.47;19.00;;;15.30;84.70;;;;;;5046873;28;20520;-74
2022/09/25 03:43:05;;;;;;;26.10;19.47;;;15.30;84.70;;;;;;5046849;28;20468;-73
2022/09/25 03:45:31;;;;;;;26.97;20.53;;;15.30;84.70;;;;;;5042582;28;20947;-74
2022/09/25 03:47:59;;;;;;;27.63;20.17;;;15.30;84.70;;;;;;5046618;28;20451;-73
2022/09/25 03:50:27;;;;;;;26.03;20.80;;;15.30;84.80;;;;;;5047239;28;20528;-73
2022/09/25 03:52:56;;;;;;;26.07;20.57;;;15.30;84.80;;;;;;5041037;28;20498;-74
2022/09/25 03:55:25;;;;;;;27.77;20.63;;;15.30;84.80;;;;;;5046395;28;20509;-73
2022/09/25 03:57:53;;;;;;;26.90;21.23;;;15.30;84.80;;;;;;5045436;28;20494;-74
2022/09/25 04:00:22;;;;;;;28.83;20.23;;;15.40;84.80;;;;;;5045732;28;20463;-75
2022/09/25 04:02:50;;;;;;;29.10;20.57;;;15.30;84.80;;;;;;5045149;28;20448;-74
2022/09/25 04:05:18;;;;;;;27.00;19.83;;;15.30;84.90;;;;;;5044080;28;22630;-74
2022/09/25 04:07:47;;;;;;;30.07;21.97;;;15.40;84.90;;;;;;5043113;28;20452;-74
2022/09/25 04:10:16;;;;;;;32.90;22.90;;;15.40;84.90;;;;;;5045592;28;20493;-74
2022/09/25 04:12:44;;;;;;;27.10;20.27;;;15.40;84.90;;;;;;5041979;28;20525;-74
2022/09/25 04:15:12;;;;;;;31.83;23.10;;;15.40;85.00;;;;;;5044170;28;20999;-74
2022/09/25 04:17:40;;;;;;;32.20;21.73;;;15.40;85.00;;;;;;5043920;28;20512;-74
2022/09/25 04:20:09;;;;;;;33.00;21.70;;;15.40;85.00;;;;;;5046043;28;20463;-73
2022/09/25 04:22:37;;;;;;;29.07;22.30;;;15.40;85.00;;;;;;5045435;28;20462;-75
2022/09/25 04:25:06;;;;;;;28.90;22.80;;;15.40;85.10;;;;;;5043231;28;20928;-73
2022/09/25 04:27:35;;;;;;;27.90;19.40;;;15.30;85.10;;;;;;5046492;28;20513;-74
2022/09/25 04:30:04;;;;;;;29.73;21.30;;;15.40;85.10;;;;;;5042885;28;20991;-74
2022/09/25 04:35:17;;;;;;;28.40;20.63;;;15.40;85.20;;;;;;5046342;28;20856;-74
2022/09/25 04:37:45;;;;;;;28.50;21.10;;;15.40;85.20;;;;;;5045831;28;20463;-74
2022/09/25 04:40:13;;;;;;;30.20;20.87;;;15.40;85.20;;;;;;5046912;28;20505;-73
2022/09/25 04:42:43;;;;;;;27.57;19.67;;;15.40;85.10;;;;;;5043079;28;20459;-73
2022/09/25 04:45:11;;;;;;;26.60;18.83;;;15.40;85.10;;;;;;5041887;28;20517;-75
2022/09/25 04:47:38;;;;;;;31.40;20.53;;;15.40;85.10;;;;;;5044986;28;20979;-76
2022/09/25 04:50:07;;;;;;;26.20;19.07;;;15.40;85.10;;;;;;5045593;28;20562;-74
2022/09/25 04:52:35;;;;;;;23.60;17.43;;;15.40;85.10;;;;;;5043784;28;20454;-75
2022/09/25 04:55:03;;;;;;;25.93;19.27;;;15.30;85.20;;;;;;5046445;28;21052;-74
2022/09/25 04:57:32;;;;;;;24.77;18.43;;;15.30;85.10;;;;;;5045266;28;20447;-74
2022/09/25 05:00:23;;;;;;;25.83;18.60;;;15.30;85.10;;;;;;5043705;28;20810;-76
2022/09/25 05:02:51;;;;;;;26.77;18.70;;;15.30;85.30;;;;;;5042074;28;20451;-75
2022/09/25 05:05:19;;;;;;;26.30;18.83;;;15.30;85.30;;;;;;5042367;28;20474;-75
2022/09/25 05:07:52;;;;;;;27.27;19.47;;;15.30;85.40;;;;;;5043039;28;20531;-73
2022/09/25 05:10:21;;;;;;;32.50;20.90;;;15.30;85.40;;;;;;5046300;28;20794;-76
2022/09/25 05:12:54;;;;;;;29.87;20.43;;;15.30;85.40;;;;;;5043640;28;20461;-74
2022/09/25 05:15:23;;;;;;;29.17;20.90;;;15.30;85.30;;;;;;5042327;28;20489;-74
2022/09/25 05:17:59;;;;;;;27.80;20.73;;;15.30;85.40;;;;;;5046004;28;20486;-75
2022/09/25 05:20:26;;;;;;;28.83;19.33;;;15.30;85.40;;;;;;5045382;28;20528;-73
2022/09/25 05:22:55;;;;;;;26.90;20.23;;;15.30;85.50;;;;;;5042993;28;20592;-73
2022/09/25 05:25:24;;;;;;;28.10;20.50;;;15.30;85.50;;;;;;5044095;28;20480;-74
2022/09/25 05:27:54;;;;;;;25.93;19.83;;;15.30;85.50;;;;;;5047433;28;20521;-74
2022/09/25 05:30:24;;;;;;;24.90;18.47;;;15.30;85.50;;;;;;5043130;28;20478;-74
2022/09/25 05:32:53;;;;;;;28.57;21.30;;;15.30;85.50;;;;;;5042919;28;20518;-74
2022/09/25 05:35:22;;;;;;;23.60;18.13;;;15.30;85.50;;;;;;5046095;28;20489;-73
2022/09/25 05:37:51;;;;;;;22.50;16.33;;;15.30;85.40;;;;;;5049721;28;20516;-73
2022/09/25 05:40:20;;;;;;;26.13;18.07;;;15.30;85.40;;;;;;5044301;28;20439;-73
2022/09/25 05:42:48;;;;;;;29.30;19.63;;;15.30;85.40;;;;;;5043651;28;20431;-74
2022/09/25 05:45:17;;;;;;;28.63;19.63;;;15.30;85.40;;;;;;5042326;28;20486;-74
2022/09/25 05:47:46;;;;;;;25.40;18.73;;;15.30;85.50;;;;;;5043305;28;20451;-74
2022/09/25 05:50:16;;;;;;;24.23;18.03;;;15.20;85.50;;;;;;5041410;28;20553;-75
2022/09/25 05:52:44;;;;;;;24.77;18.00;;;15.30;85.60;;;;;;5044991;28;20455;-75
2022/09/25 05:55:12;;;;;;;21.70;15.90;;;15.30;85.50;;;;;;5046253;28;20510;-74
2022/09/25 05:57:40;;;;;;;22.73;16.70;;;15.30;85.50;;;;;;5046098;28;20510;-73
2022/09/25 06:00:11;;;;;;;22.70;18.23;;;15.30;85.50;;;;;;5038411;28;22377;-74
2022/09/25 06:02:39;;;;;;;20.50;15.00;;;15.30;85.60;;;;;;5034576;28;20468;-73
2022/09/25 06:05:09;;;;;;;21.57;15.60;;;15.30;85.60;;;;;;5048610;28;20474;-75
2022/09/25 06:07:37;;;;;;;21.70;16.40;;;15.30;85.60;;;;;;5047202;28;20475;-74
2022/09/25 06:10:06;;;;;;;20.93;15.67;;;15.30;85.60;;;;;;5047619;28;20587;-74
2022/09/25 06:12:34;;;;;;;21.70;15.40;;;15.30;85.60;;;;;;5047601;28;20489;-75
2022/09/25 06:15:02;;;;;;;20.17;14.13;;;15.30;85.60;;;;;;5048164;28;21018;-75
2022/09/25 06:17:29;;;;;;;18.40;14.77;;;15.30;85.60;;;;;;5045983;28;20520;-74
2022/09/25 06:19:57;;;;;;;20.60;16.33;;;15.30;85.60;;;;;;5047802;28;20505;-74
2022/09/25 06:22:27;;;;;;;22.77;15.70;;;15.30;85.50;;;;;;5047894;28;21041;-75
2022/09/25 06:24:55;;;;;;;18.50;13.97;;;15.30;85.50;;;;;;5045077;28;20490;-76
2022/09/25 06:27:23;;;;;;;22.60;14.47;;;15.30;85.60;;;;;;5045677;28;20955;-75
2022/09/25 06:29:50;;;;;;;18.90;14.23;;;15.30;85.50;;;;;;5045763;28;20538;-73
2022/09/25 06:32:20;;;;;;;17.50;14.33;;;15.20;85.50;;;;;;5043993;28;20475;-74
2022/09/25 06:34:48;;;;;;;19.10;13.73;;;15.20;85.50;;;;;;5044760;28;20536;-75
2022/09/25 06:37:16;;;;;;;16.40;12.90;;;15.20;85.50;;;;;;5046162;28;20513;-73
2022/09/25 06:39:45;;;;;;;20.80;13.80;;;15.20;85.50;;;;;;5046494;28;20532;-76
2022/09/25 06:42:13;;;;;;;16.63;12.73;;;15.20;85.60;;;;;;5044052;28;21187;-74
2022/09/25 06:44:42;;;;;;;18.23;13.20;;;15.20;85.60;;;;;;5040910;28;20487;-74
2022/09/25 06:47:11;;;;;;;16.30;14.00;;;15.20;85.60;;;;;;5045131;28;20459;-75
2022/09/25 06:49:46;;;;;;;15.73;12.97;;;15.20;85.70;;;;;;5046299;28;20469;-74
2022/09/25 06:52:13;;;;;;;15.07;11.87;;;15.20;85.50;;;;;;5045184;28;20506;-75
2022/09/25 06:54:41;;;;;;;17.00;13.20;;;15.20;85.50;;;;;;5046284;28;20470;-74
2022/09/25 06:57:12;;;;;;;15.03;12.43;;;15.20;85.50;;;;;;5046018;28;20462;-75
2022/09/25 06:59:40;;;;;;;16.30;12.20;;;15.20;85.40;;;;;;5044132;28;20458;-74
2022/09/25 07:04:51;;;;;;;15.53;12.63;;;15.20;85.50;;;;;;5046981;28;20835;-76
2022/09/25 07:07:19;;;;;;;15.60;12.43;;;15.20;85.50;;;;;;5044474;28;20455;-75
2022/09/25 07:09:47;;;;;;;16.80;13.17;;;15.20;85.50;;;;;;5046293;28;20458;-74
2022/09/25 07:12:17;;;;;;;15.20;12.77;;;15.20;85.50;;;;;;5043354;28;20470;-75
2022/09/25 07:14:46;;;;;;;14.77;12.00;;;15.20;85.60;;;;;;5045227;28;20487;-75
2022/09/25 07:17:14;;;;;;;16.90;12.60;;;15.20;85.50;;;;;;5043307;28;21067;-75
2022/09/25 07:19:42;;;;;;;18.30;10.93;;;15.20;85.50;;;;;;5046956;28;20495;-75
2022/09/25 07:22:10;;;;;;;16.30;12.17;;;15.20;85.40;;;;;;5043500;28;20448;-75
2022/09/25 07:24:39;;;;;;;17.30;13.53;;;15.20;85.50;;;;;;5048016;28;20467;-75
2022/09/25 07:27:07;;;;;;;15.90;12.97;;;15.20;85.50;;;;;;5049018;28;20524;-75
2022/09/25 07:29:36;;;;;;;18.53;13.50;;;15.20;85.50;;;;;;5050233;28;20536;-74
2022/09/25 07:32:04;;;;;;;15.63;13.40;;;15.30;85.30;;;;;;5045654;28;20582;-75
2022/09/25 07:34:35;;;;;;;27.27;14.10;;;15.20;85.30;;;;;;5045908;28;21063;-75
2022/09/25 07:37:03;;;;;;;20.03;15.13;;;15.20;85.40;;;;;;5045041;28;20517;-75
2022/09/25 07:39:31;;;;;;;18.10;13.40;;;15.20;85.30;;;;;;5050936;28;20966;-75
2022/09/25 07:41:58;;;;;;;21.00;15.27;;;15.20;85.40;;;;;;5048162;28;20565;-74
2022/09/25 07:44:26;;;;;;;18.97;14.47;;;15.20;85.30;;;;;;5045099;28;20579;-75
2022/09/25 07:47:00;;;;;;;17.10;12.80;;;15.20;85.30;;;;;;5045641;28;20455;-75
2022/09/25 07:49:28;;;;;;;20.10;14.90;;;15.20;85.30;;;;;;5043154;28;21004;-74
2022/09/25 07:51:56;;;;;;;17.17;14.50;;;15.20;85.30;;;;;;5041877;28;21027;-76
2022/09/25 07:54:24;;;;;;;16.87;14.10;;;15.20;85.10;;;;;;5041796;28;20530;-75
2022/09/25 07:56:53;;;;;;;17.50;15.27;;;15.20;85.20;;;;;;5042373;28;20533;-74
2022/09/25 07:59:20;;;;;;;16.83;14.47;;;15.20;85.20;;;;;;5042239;28;20463;-74
2022/09/25 08:01:48;;;;;;;18.03;14.20;;;15.20;85.10;;;;;;5046775;28;20504;-75
2022/09/25 08:04:22;;;;;;;20.13;16.13;;;15.20;85.10;;;;;;5039508;28;20938;-74
2022/09/25 08:06:50;;;;;;;20.03;16.17;;;15.20;85.20;;;;;;5047330;28;21108;-75
2022/09/25 08:09:18;;;;;;;18.43;14.87;;;15.20;85.10;;;;;;5043811;28;21041;-75
2022/09/25 08:11:46;;;;;;;22.00;16.57;;;15.20;85.10;;;;;;5044020;28;20636;-75
2022/09/25 08:14:14;;;;;;;21.63;17.00;;;15.20;85.00;;;;;;5044130;28;20470;-74
2022/09/25 08:16:42;;;;;;;21.07;16.77;;;15.20;85.00;;;;;;5044506;28;20508;-74
2022/09/25 08:19:11;;;;;;;20.00;16.13;;;15.20;84.90;;;;;;5042319;28;20467;-74
2022/09/25 08:21:40;;;;;;;20.73;16.30;;;15.20;84.90;;;;;;5046036;28;20603;-75
2022/09/25 08:24:09;;;;;;;20.57;15.93;;;15.20;84.90;;;;;;5043348;28;21169;-75
2022/09/25 08:26:37;;;;;;;31.47;23.13;;;15.20;84.90;;;;;;5046064;28;21353;-75
2022/09/25 08:29:07;;;;;;;24.87;19.37;;;15.20;84.90;;;;;;5039643;28;20534;-74
2022/09/25 08:31:35;;;;;;;20.53;15.67;;;15.20;84.90;;;;;;5044780;28;20582;-74
2022/09/25 08:34:03;;;;;;;18.97;15.70;;;15.20;84.90;;;;;;5059355;28;21123;-74
2022/09/25 08:36:53;;;;;;;22.97;17.00;;;15.20;84.80;;;;;;5040889;28;20459;-74
2022/09/25 08:39:21;;;;;;;19.20;15.37;;;15.20;84.80;;;;;;5042172;28;20496;-74
2022/09/25 08:41:52;;;;;;;22.30;16.33;;;15.20;84.80;;;;;;5042611;28;20509;-74
2022/09/25 08:44:25;;;;;;;24.50;17.40;;;15.20;84.80;;;;;;5039001;28;20561;-74
2022/09/25 08:49:51;;;;;;;23.03;18.13;;;15.20;84.60;;;;;;5043060;28;20474;-75
2022/09/25 08:52:21;;;;;;;26.50;19.30;;;15.20;84.70;;;;;;5041675;28;20533;-76
2022/09/25 08:54:50;;;;;;;27.07;18.67;;;15.20;84.70;;;;;;5041569;28;21315;-74
2022/09/25 08:57:28;;;;;;;20.70;16.47;;;15.10;84.70;;;;;;5041692;28;20450;-73
2022/09/25 09:00:01;;;;;;;27.33;18.33;;;15.20;84.80;;;;;;5042005;28;20577;-75
2022/09/25 09:02:37;;;;;;;24.30;17.17;;;15.10;84.70;;;;;;5039027;28;20538;-75
2022/09/25 09:05:14;;;;;;;20.90;16.03;;;15.10;84.80;;;;;;5044684;28;20495;-76
2022/09/25 09:07:47;;;;;;;23.27;16.37;;;15.20;84.80;;;;;;5038570;28;20580;-76
2022/09/25 09:10:27;;;;;;;23.67;16.00;;;15.20;84.80;;;;;;5043960;28;20505;-76
2022/09/25 09:13:01;;;;;;;21.00;16.30;;;15.20;84.80;;;;;;5039350;28;21987;-75
2022/09/25 09:15:37;;;;;;;21.27;16.60;;;15.20;84.70;;;;;;5041554;28;20480;-74
2022/09/25 09:18:16;;;;;;;22.37;15.87;;;15.20;84.80;;;;;;5036964;28;20470;-75
2022/09/25 09:20:50;;;;;;;21.57;15.70;;;15.20;84.90;;;;;;5040500;28;20536;-75
2022/09/25 09:23:22;;;;;;;22.70;16.60;;;15.20;84.90;;;;;;5040008;28;20538;-73
2022/09/25 09:26:05;;;;;;;20.80;15.60;;;15.20;84.90;;;;;;5040661;28;21082;-75
2022/09/25 09:28:57;;;;;;;18.60;15.20;;;15.20;84.90;;;;;;5036152;28;20858;-75
2022/09/25 09:31:29;;;;;;;18.80;14.77;;;15.20;84.90;;;;;;5042072;28;20500;-75
2022/09/25 09:34:08;;;;;;;19.70;14.60;;;15.20;85.00;;;;;;5042825;28;20455;-75
2022/09/25 09:36:43;;;;;;;19.10;14.57;;;15.20;84.90;;;;;;5042528;28;20540;-74
2022/09/25 09:39:19;;;;;;;18.00;13.80;;;15.20;84.80;;;;;;5025110;28;20914;-76
2022/09/25 09:42:00;;;;;;;19.10;15.07;;;15.20;84.80;;;;;;5023751;28;20458;-75
2022/09/25 09:44:40;;;;;;;21.10;16.43;;;15.10;85.10;;;;;;5016692;28;21036;-76
2022/09/25 09:47:25;;;;;;;21.27;16.50;;;15.20;85.10;;;;;;5037889;28;20493;-74
2022/09/25 09:49:58;;;;;;;17.80;14.53;;;15.20;85.20;;;;;;5026248;28;20468;-74
2022/09/25 09:52:30;;;;;;;18.40;14.30;;;15.20;85.20;;;;;;5024300;28;20484;-74
2022/09/25 09:55:04;;;;;;;18.60;14.30;;;15.30;85.30;;;;;;5027336;28;20524;-74
2022/09/25 09:57:41;;;;;;;17.40;14.20;;;15.30;85.30;;;;;;5022952;28;20500;-73
2022/09/25 10:00:15;;;;;;;23.17;15.00;;;15.30;85.10;;;;;;5026922;28;20491;-76
2022/09/25 10:02:46;;;;;;;18.13;14.43;;;15.30;85.20;;;;;;5035403;28;20512;-77
2022/09/25 10:05:20;;;;;;;15.90;13.37;;;15.30;85.10;;;;;;5026780;28;20891;-75
2022/09/25 10:07:49;;;;;;;18.30;14.70;;;15.40;85.10;;;;;;5027969;28;21008;-75
2022/09/25 10:10:19;;;;;;;16.83;13.33;;;15.40;85.10;;;;;;5024639;28;20491;-75
2022/09/25 10:12:50;;;;;;;17.50;13.57;;;15.40;85.10;;;;;;5024528;28;20557;-75
2022/09/25 10:15:30;;;;;;;16.77;13.33;;;15.40;85.10;;;;;;5023439;28;20496;-75
2022/09/25 10:18:00;;;;;;;17.33;12.97;;;15.40;85.10;;;;;;5027420;28;20451;-75
2022/09/25 10:20:35;;;;;;;17.37;13.53;;;15.40;85.00;;;;;;5025663;28;20529;-75
2022/09/25 10:23:06;;;;;;;18.00;13.73;;;15.40;85.20;;;;;;5026799;28;20455;-75
2022/09/25 10:25:40;;;;;;;21.90;13.30;;;15.40;85.20;;;;;;5022109;28;20475;-75
2022/09/25 10:28:31;;;;;;;17.73;13.10;;;15.40;85.20;;;;;;5022299;28;20507;-74
2022/09/25 10:31:00;;;;;;;19.00;13.77;;;15.50;85.30;;;;;;5023931;28;20554;-75
2022/09/25 10:33:31;;;;;;;18.50;14.33;;;15.50;85.20;;;;;;5043583;28;21577;-74
2022/09/25 10:35:59;;;;;;;17.80;14.10;;;15.60;85.30;;;;;;5027598;28;20522;-74
2022/09/25 10:38:46;;;;;;;20.30;11.13;;;15.60;85.30;;;;;;5027289;28;20463;-75
2022/09/25 10:41:18;;;;;;;11.40;9.00;;;15.70;85.30;;;;;;5025962;28;20464;-74
2022/09/25 10:43:54;;;;;;;11.50;9.30;;;15.70;85.10;;;;;;5020546;28;20510;-76
2022/09/25 10:52:07;;;;;;;10.57;7.80;;;15.80;85.10;;;;;;5022445;28;20464;-75
2022/09/25 10:54:35;;;;;;;10.33;7.03;;;15.80;85.10;;;;;;5026530;28;20966;-76
2022/09/25 10:57:32;;;;;;;8.20;6.60;;;15.90;85.10;;;;;;5021602;28;20585;-75
2022/09/25 11:00:02;;;;;;;9.17;6.90;;;15.90;85.00;;;;;;5024204;28;20455;-74
2022/09/25 11:02:37;;;;;;;8.70;6.43;;;16.00;84.70;;;;;;5027089;28;20541;-74
2022/09/25 11:05:07;;;;;;;9.27;6.77;;;16.00;84.70;;;;;;5023065;28;21066;-74
2022/09/25 11:07:36;;;;;;;12.07;9.10;;;16.00;84.70;;;;;;5023847;28;20452;-74
2022/09/25 11:10:05;;;;;;;11.87;9.23;;;16.00;84.50;;;;;;5024192;28;20794;-75
2022/09/25 11:12:38;;;;;;;11.87;9.50;;;16.00;84.40;;;;;;5021288;28;20511;-74
2022/09/25 11:15:16;;;;;;;14.13;11.30;;;15.90;84.30;;;;;;5022644;28;20513;-76
2022/09/25 11:17:46;;;;;;;13.40;11.00;;;15.90;84.40;;;;;;5022784;28;20460;-74
2022/09/25 11:20:28;;;;;;;14.50;12.67;;;15.90;84.50;;;;;;5023392;28;20464;-74
2022/09/25 11:23:20;;;;;;;14.03;11.70;;;15.90;84.70;;;;;;5022007;28;20454;-75
2022/09/25 11:25:53;;;;;;;17.37;11.93;;;15.80;84.70;;;;;;5022367;28;20488;-74
2022/09/25 11:28:30;;;;;;;15.60;12.13;;;15.90;84.70;;;;;;5025429;28;20490;-74
2022/09/25 11:31:03;;;;;;;13.60;11.60;;;15.90;84.90;;;;;;5021348;28;20475;-75
2022/09/25 11:33:41;;;;;;;14.77;12.37;;;15.90;85.00;;;;;;5023064;28;20523;-75
2022/09/25 11:36:17;;;;;;;17.20;13.77;;;15.90;85.00;;;;;;5024828;28;20476;-74
2022/09/25 11:41:39;;;;;;;18.10;13.87;;;16.00;84.90;;;;;;5021738;28;20463;-74
2022/09/25 11:44:21;;;;;;;15.80;12.93;;;15.90;84.90;;;;;;5023262;28;20462;-74
2022/09/25 11:46:55;;;;;;;18.70;13.87;;;15.90;84.90;;;;;;5018855;28;20471;-74
2022/09/25 11:49:27;;;;;;;14.30;11.43;;;15.90;85.00;;;;;;5022956;28;20455;-76
2022/09/25 11:52:24;;;;;;;12.80;11.20;;;15.90;85.10;;;;;;5020496;28;20464;-75
2022/09/25 11:55:13;;;;;;;19.50;16.87;;;15.90;85.10;;;;;;5020701;28;20533;-75
2022/09/25 11:57:53;;;;;;;17.20;12.53;;;15.90;85.00;;;;;;5024654;28;20555;-75
2022/09/25 12:00:26;;;;;;;13.73;10.37;;;16.00;85.00;;;;;;5025055;28;20450;-75
2022/09/25 12:03:09;;;;;;;13.00;10.43;;;16.00;85.10;;;;;;5023894;28;20463;-74
2022/09/25 12:05:53;;;;;;;14.90;11.37;;;16.00;85.00;;;;;;5021058;28;20543;-74
2022/09/25 12:08:35;;;;;;;15.00;10.87;;;16.00;85.00;;;;;;5020639;28;20464;-73
2022/09/25 12:11:12;;;;;;;14.67;10.50;;;16.00;85.10;;;;;;5020400;28;20915;-75
2022/09/25 12:13:48;;;;;;;14.90;10.90;;;16.10;85.10;;;;;;5021246;28;20480;-74
2022/09/25 12:16:25;;;;;;;13.07;9.10;;;16.10;85.10;;;;;;5019654;28;20545;-75
2022/09/25 12:19:17;;;;;;;14.40;10.43;;;16.10;85.10;;;;;;5027771;28;20483;-74
2022/09/25 12:21:52;;;;;;;13.00;11.37;;;16.20;85.00;;;;;;5020226;28;20444;-74
2022/09/25 12:24:35;;;;;;;13.33;10.83;;;16.20;85.00;;;;;;5055127;28;20476;-75
2022/09/25 12:27:11;;;;;;;11.60;9.90;;;16.20;85.00;;;;;;5022290;28;20459;-74
2022/09/25 12:30:07;;;;;;;9.40;7.97;;;16.30;84.90;;;;;;5021442;28;21046;-76
2022/09/25 12:32:58;;;;;;;10.40;7.40;;;16.20;84.80;;;;;;5022577;28;20452;-75
2022/09/25 12:35:39;;;;;;;10.50;7.30;;;16.20;84.70;;;;;;5020073;28;21197;-75
2022/09/25 12:38:16;;;;;;;9.63;7.23;;;16.20;84.80;;;;;;5023557;28;20521;-74
2022/09/25 12:40:48;;;;;;;9.57;7.33;;;16.30;84.80;;;;;;5023599;28;20525;-75
2022/09/25 12:43:22;;;;;;;8.83;7.20;;;16.30;84.80;;;;;;5025379;28;20471;-76
2022/09/25 12:45:55;;;;;;;17.90;13.50;;;16.30;84.70;;;;;;5012525;28;20481;-74
2022/09/25 12:48:33;;;;;;;13.83;9.67;;;16.40;84.60;;;;;;5023483;28;20459;-76
2022/09/25 12:51:05;;;;;;;9.83;7.40;;;16.40;84.60;;;;;;5027402;28;20869;-75
2022/09/25 12:53:39;;;;;;;15.27;11.70;;;16.40;84.40;;;;;;5021142;28;20468;-74
2022/09/25 12:56:13;;;;;;;11.83;9.13;;;16.50;84.30;;;;;;5028306;28;20517;-76
2022/09/25 12:59:06;;;;;;;9.47;7.33;;;16.50;84.20;;;;;;5029733;28;20518;-74
2022/09/25 13:01:44;;;;;;;9.27;6.43;;;16.50;84.10;;;;;;5026966;28;20502;-75
2022/09/25 13:04:43;;;;;;;8.07;5.63;;;16.60;84.10;;;;;;5022648;28;20459;-75
2022/09/25 13:07:19;;;;;;;9.07;5.83;;;16.60;83.90;;;;;;5021976;28;20550;-75
2022/09/25 13:09:48;;;;;;;8.13;5.90;;;16.60;83.90;;;;;;5027043;28;20525;-75
2022/09/25 13:12:27;;;;;;;9.93;6.30;;;16.70;83.80;;;;;;5023250;28;20468;-75
2022/09/25 13:14:59;;;;;;;8.67;6.40;;;16.70;83.70;;;;;;5027629;28;20545;-75
2022/09/25 13:17:28;;;;;;;9.50;6.40;;;16.70;83.70;;;;;;5028718;28;20554;-75
2022/09/25 13:20:36;;;;;;;6.90;4.90;;;16.70;83.50;;;;;;5028743;28;20574;-76